createdAt,value
2018-08-24T00:02:14.016Z,56.90
2018-08-24T00:05:17.133Z,57.20
2018-08-24T00:08:20.219Z,57.40
2018-08-24T00:11:23.271Z,57.00
2018-08-24T00:14:27.294Z,57.20
2018-08-24T00:17:31.048Z,56.80
2018-08-24T00:20:34.135Z,56.80
2018-08-24T00:23:37.317Z,56.80
2018-08-24T00:26:40.441Z,57.10
2018-08-24T00:29:43.552Z,57.30
2018-08-24T00:32:46.634Z,57.60
2018-08-24T00:35:49.730Z,58.00
2018-08-24T00:38:52.938Z,58.50
2018-08-24T00:41:56.021Z,58.00
2018-08-24T00:44:59.122Z,57.70
2018-08-24T00:48:02.207Z,58.60
2018-08-24T00:51:05.397Z,58.00
2018-08-24T00:54:08.503Z,58.70
2018-08-24T00:57:11.593Z,58.70
2018-08-24T01:00:14.710Z,59.60
2018-08-24T01:03:17.790Z,59.70
2018-08-24T01:06:23.318Z,60.60
2018-08-24T01:09:26.398Z,60.80
2018-08-24T01:12:29.593Z,63.20
2018-08-24T01:15:46.878Z,65.50
2018-08-24T01:18:50.056Z,66.20
2018-08-24T01:21:53.308Z,65.60
2018-08-24T01:24:56.337Z,66.80
2018-08-24T01:27:59.482Z,66.40
2018-08-24T01:31:04.325Z,66.80
2018-08-24T01:34:07.427Z,66.50
2018-08-24T01:37:10.635Z,64.60
2018-08-24T01:40:13.862Z,65.40
2018-08-24T01:43:16.969Z,65.40
2018-08-24T01:46:20.070Z,65.50
2018-08-24T01:49:23.288Z,65.40
2018-08-24T01:52:26.401Z,65.70
2018-08-24T01:55:29.531Z,65.10
2018-08-24T01:58:32.700Z,64.10
2018-08-24T02:01:35.805Z,64.50
2018-08-24T02:04:38.999Z,65.60
2018-08-24T02:07:42.138Z,65.40
2018-08-24T02:10:45.244Z,66.40
2018-08-24T02:13:53.978Z,65.30
2018-08-24T02:16:57.205Z,65.20
2018-08-24T02:20:06.095Z,64.40
2018-08-24T02:23:13.144Z,64.50
2018-08-24T02:26:16.286Z,64.20
2018-08-24T02:29:19.390Z,64.60
2018-08-24T02:32:22.514Z,63.90
2018-08-24T02:35:25.630Z,64.60
2018-08-24T02:38:28.720Z,65.00
2018-08-24T02:41:31.869Z,64.90
2018-08-24T02:44:34.997Z,65.40
2018-08-24T02:47:38.136Z,65.70
2018-08-24T02:50:41.237Z,65.10
2018-08-24T02:53:44.354Z,65.10
2018-08-24T02:56:47.486Z,64.70
2018-08-24T02:59:50.632Z,65.10
2018-08-24T03:02:58.922Z,64.50
2018-08-24T03:06:02.278Z,64.80
2018-08-24T03:09:13.785Z,64.80
2018-08-24T03:12:16.939Z,63.70
2018-08-24T03:15:20.031Z,63.80
2018-08-24T03:18:23.182Z,63.70
2018-08-24T03:21:26.294Z,64.30
2018-08-24T03:24:29.375Z,64.00
2018-08-24T03:27:32.517Z,63.70
2018-08-24T03:30:35.619Z,63.70
2018-08-24T03:33:38.657Z,63.40
2018-08-24T03:36:41.823Z,63.90
2018-08-24T03:39:44.919Z,63.80
2018-08-24T03:42:48.074Z,63.80
2018-08-24T03:45:51.268Z,64.00
2018-08-24T03:48:54.290Z,63.20
2018-08-24T03:51:57.408Z,62.80
2018-08-24T03:55:00.541Z,62.80
2018-08-24T03:58:05.305Z,62.80
2018-08-24T04:01:08.395Z,62.60
2018-08-24T04:04:11.484Z,62.70
2018-08-24T04:07:14.641Z,62.70
2018-08-24T04:10:17.869Z,62.40
2018-08-24T04:13:20.971Z,62.90
2018-08-24T04:16:24.122Z,63.30
2018-08-24T04:19:28.150Z,63.60
2018-08-24T04:22:31.831Z,64.00
2018-08-24T04:25:34.995Z,64.80
2018-08-24T04:28:38.014Z,64.00
2018-08-24T04:31:41.080Z,63.50
2018-08-24T04:34:44.268Z,63.40
2018-08-24T04:37:47.382Z,63.70
2018-08-24T04:40:50.445Z,64.00
2018-08-24T04:43:53.662Z,64.20
2018-08-24T04:46:56.722Z,64.20
2018-08-24T04:49:59.810Z,64.30
2018-08-24T04:53:02.924Z,64.40
2018-08-24T04:56:06.601Z,63.90
2018-08-24T04:59:09.714Z,64.80
2018-08-24T05:02:12.842Z,65.00
2018-08-24T05:05:15.936Z,65.20
2018-08-24T05:08:19.049Z,64.90
2018-08-24T05:11:22.144Z,64.70
2018-08-24T05:14:25.286Z,65.30
2018-08-24T05:17:28.493Z,65.50
2018-08-24T05:20:31.577Z,66.80
2018-08-24T05:23:34.684Z,66.50
2018-08-24T05:26:37.774Z,66.50
2018-08-24T05:29:40.889Z,67.50
2018-08-24T05:32:43.919Z,66.60
2018-08-24T05:35:46.990Z,67.60
2018-08-24T05:38:50.106Z,67.10
2018-08-24T05:41:53.172Z,67.30
2018-08-24T05:44:56.317Z,66.80
2018-08-24T05:47:59.350Z,66.70
2018-08-24T05:51:02.387Z,66.40
2018-08-24T05:54:05.517Z,66.00
2018-08-24T05:57:08.582Z,66.00
2018-08-24T06:00:11.816Z,65.90
2018-08-24T06:03:14.894Z,65.30
2018-08-24T06:06:18.013Z,65.10
2018-08-24T06:09:21.125Z,64.70
2018-08-24T06:12:24.163Z,65.50
2018-08-24T06:15:27.779Z,66.70
2018-08-24T06:18:30.850Z,65.70
2018-08-24T06:21:34.110Z,65.70
2018-08-24T06:24:37.298Z,66.30
2018-08-24T06:27:40.512Z,65.70
2018-08-24T06:30:43.536Z,65.60
2018-08-24T06:33:46.532Z,65.40
2018-08-24T06:36:49.463Z,66.60
2018-08-24T06:39:52.463Z,66.90
2018-08-24T06:42:55.516Z,65.80
2018-08-24T06:45:58.733Z,66.30
2018-08-24T06:49:01.810Z,65.60
2018-08-24T06:52:05.014Z,65.70
2018-08-24T06:55:08.203Z,65.90
2018-08-24T06:58:11.154Z,65.50
2018-08-24T07:01:14.263Z,67.00
2018-08-24T07:04:17.252Z,66.70
2018-08-24T07:07:20.406Z,66.60
2018-08-24T07:10:23.560Z,66.70
2018-08-24T07:13:26.539Z,65.20
2018-08-24T07:16:30.558Z,66.00
2018-08-24T07:19:33.605Z,65.00
2018-08-24T07:22:36.746Z,65.00
2018-08-24T07:25:39.898Z,65.60
2018-08-24T07:28:42.802Z,65.80
2018-08-24T07:31:45.764Z,65.30
2018-08-24T07:34:48.786Z,65.00
2018-08-24T07:37:51.753Z,65.30
2018-08-24T07:40:54.764Z,65.70
2018-08-24T07:43:58.529Z,65.60
2018-08-24T07:47:01.678Z,65.60
2018-08-24T07:50:05.208Z,65.10
2018-08-24T07:53:08.566Z,64.30
2018-08-24T07:56:11.581Z,65.30
2018-08-24T07:59:14.567Z,65.00
2018-08-24T08:03:21.129Z,65.20
2018-08-24T08:06:24.195Z,66.00
2018-08-24T08:09:27.243Z,66.20
2018-08-24T08:12:30.376Z,65.60
2018-08-24T08:15:33.390Z,65.20
2018-08-24T08:18:36.839Z,64.70
2018-08-24T08:21:39.889Z,64.40
2018-08-24T08:24:42.984Z,63.50
2018-08-24T08:27:52.862Z,63.10
2018-08-24T08:30:56.125Z,63.60
2018-08-24T08:33:59.154Z,61.50
2018-08-24T08:37:02.542Z,62.00
2018-08-24T08:40:05.616Z,62.60
2018-08-24T08:43:08.618Z,61.90
2018-08-24T08:46:11.643Z,61.70
2018-08-24T08:49:14.632Z,61.60
2018-08-24T08:52:17.759Z,61.10
2018-08-24T08:55:20.812Z,61.80
2018-08-24T08:58:23.996Z,62.60
2018-08-24T09:01:26.999Z,62.50
2018-08-24T09:04:30.079Z,62.40
2018-08-24T09:07:33.140Z,62.00
2018-08-24T09:10:36.181Z,62.90
2018-08-24T09:13:39.194Z,64.70
2018-08-24T09:16:42.348Z,63.60
2018-08-24T09:19:50.995Z,63.60
2018-08-24T09:22:59.787Z,64.50
2018-08-24T09:26:08.579Z,64.20
2018-08-24T09:29:28.738Z,64.90
2018-08-24T09:32:31.880Z,65.00
2018-08-24T09:35:34.796Z,65.40
2018-08-24T09:38:37.842Z,64.70
2018-08-24T09:41:40.897Z,63.70
2018-08-24T09:44:43.935Z,62.40
2018-08-24T09:47:52.506Z,63.60
2018-08-24T09:51:01.283Z,63.60
2018-08-24T09:54:05.682Z,63.60
2018-08-24T09:57:08.748Z,62.20
2018-08-24T10:00:11.898Z,62.60
2018-08-24T10:03:20.603Z,63.00
2018-08-24T10:06:29.367Z,61.40
2018-08-24T10:09:32.490Z,61.90
2018-08-24T10:12:36.771Z,61.20
2018-08-24T10:15:39.779Z,60.90
2018-08-24T10:18:43.898Z,60.10
2018-08-24T10:21:46.935Z,58.70
2018-08-24T10:24:50.021Z,58.30
2018-08-24T10:27:53.199Z,60.30
2018-08-24T10:30:56.356Z,58.20
2018-08-24T10:33:59.425Z,59.00
2018-08-24T10:37:02.511Z,56.30
2018-08-24T10:40:05.752Z,57.10
2018-08-24T10:43:08.805Z,56.70
2018-08-24T10:46:11.777Z,56.20
2018-08-24T10:49:14.897Z,54.70
2018-08-24T10:52:17.949Z,55.70
2018-08-24T10:55:20.995Z,55.10
2018-08-24T10:58:24.018Z,53.80
2018-08-24T11:01:33.782Z,52.70
2018-08-24T11:04:36.823Z,51.30
2018-08-24T11:07:39.871Z,50.50
2018-08-24T11:10:42.989Z,50.40
2018-08-24T11:13:59.310Z,51.00
2018-08-24T11:17:03.005Z,47.60
2018-08-24T11:20:07.965Z,46.30
2018-08-24T11:23:11.196Z,45.30
2018-08-24T11:26:14.347Z,45.50
2018-08-24T11:29:17.500Z,46.40
2018-08-24T11:32:20.646Z,45.10
2018-08-24T11:35:24.821Z,44.60
2018-08-24T11:38:29.037Z,46.00
2018-08-24T11:41:34.043Z,44.20
2018-08-24T11:44:37.335Z,44.30
2018-08-24T11:47:40.445Z,45.80
2018-08-24T11:50:43.521Z,45.20
2018-08-24T11:54:04.249Z,44.50
2018-08-24T12:00:12.199Z,46.10
2018-08-24T12:03:22.980Z,43.50
2018-08-24T12:06:26.086Z,42.40
2018-08-24T12:09:29.230Z,43.10
2018-08-24T12:12:32.372Z,42.80
2018-08-24T12:15:36.004Z,44.40
2018-08-24T12:18:39.661Z,43.30
2018-08-24T12:22:02.445Z,44.10
2018-08-24T12:26:00.683Z,43.00
2018-08-24T12:29:04.570Z,38.60
2018-08-24T12:32:28.459Z,38.10
2018-08-24T12:35:32.009Z,39.50
2018-08-24T12:38:35.171Z,38.00
2018-08-24T12:41:38.378Z,37.20
2018-08-24T12:44:41.847Z,37.40
2018-08-24T12:47:44.869Z,37.90
2018-08-24T12:50:47.926Z,37.20
2018-08-24T12:53:50.976Z,38.60
2018-08-24T12:56:54.059Z,37.80
2018-08-24T13:00:04.199Z,37.90
2018-08-24T13:03:07.162Z,38.00
2018-08-24T13:06:10.506Z,40.90
2018-08-24T13:09:13.711Z,39.50
2018-08-24T13:12:16.951Z,38.40
2018-08-24T13:15:20.022Z,38.20
2018-08-24T13:18:23.047Z,40.10
2018-08-24T13:21:26.096Z,42.40
2018-08-24T13:24:29.159Z,40.80
2018-08-24T13:27:32.186Z,40.70
2018-08-24T13:30:35.263Z,40.50
2018-08-24T13:33:38.315Z,40.70
2018-08-24T13:36:41.448Z,41.20
2018-08-24T13:39:44.461Z,39.30
2018-08-24T13:42:47.567Z,38.80
2018-08-24T13:45:50.548Z,39.30
2018-08-24T13:48:53.527Z,38.50
2018-08-24T13:51:56.597Z,37.40
2018-08-24T13:54:59.684Z,37.70
2018-08-24T13:58:02.819Z,37.80
2018-08-24T14:01:06.114Z,38.90
2018-08-24T14:04:09.310Z,38.30
2018-08-24T14:07:12.399Z,40.60
2018-08-24T14:10:15.502Z,39.90
2018-08-24T14:13:18.626Z,40.00
2018-08-24T14:16:21.628Z,38.70
2018-08-24T14:19:24.734Z,39.80
2018-08-24T14:22:27.840Z,40.80
2018-08-24T14:25:31.009Z,40.40
2018-08-24T14:28:34.052Z,39.60
2018-08-24T14:31:37.350Z,40.00
2018-08-24T14:34:40.683Z,40.60
2018-08-24T14:37:43.801Z,40.90
2018-08-24T14:40:46.896Z,41.30
2018-08-24T14:43:49.987Z,40.80
2018-08-24T14:46:53.071Z,41.70
2018-08-24T14:49:56.216Z,44.10
2018-08-24T14:52:59.319Z,40.30
2018-08-24T14:56:02.401Z,42.00
2018-08-24T14:59:05.751Z,41.40
2018-08-24T15:02:08.821Z,41.50
2018-08-24T15:05:12.294Z,39.60
2018-08-24T15:08:15.385Z,39.20
2018-08-24T15:11:18.451Z,39.40
2018-08-24T15:14:21.506Z,39.70
2018-08-24T15:17:24.844Z,40.40
2018-08-24T15:20:27.900Z,40.40
2018-08-24T15:23:30.942Z,40.70
2018-08-24T15:26:34.034Z,41.30
2018-08-24T15:29:37.152Z,42.40
2018-08-24T15:32:40.210Z,41.20
2018-08-24T15:35:43.297Z,40.30
2018-08-24T15:38:46.386Z,40.50
2018-08-24T15:41:49.513Z,39.90
2018-08-24T15:44:52.620Z,40.50
2018-08-24T15:47:55.644Z,40.50
2018-08-24T15:50:58.710Z,40.60
2018-08-24T15:54:01.802Z,40.40
2018-08-24T15:57:04.947Z,40.30
2018-08-24T16:00:08.095Z,40.80
2018-08-24T16:03:11.122Z,40.70
2018-08-24T16:06:14.162Z,40.70
2018-08-24T16:09:17.135Z,40.70
2018-08-24T16:12:20.315Z,40.80
2018-08-24T16:15:23.303Z,40.70
2018-08-24T16:18:26.335Z,41.10
2018-08-24T16:21:29.365Z,41.40
2018-08-24T16:24:32.728Z,41.40
2018-08-24T16:27:35.852Z,39.40
2018-08-24T16:30:38.922Z,46.90
2018-08-24T16:33:41.961Z,39.90
2018-08-24T16:36:45.057Z,39.10
2018-08-24T16:39:48.054Z,39.50
2018-08-24T16:42:51.227Z,39.50
2018-08-24T16:45:54.228Z,39.10
2018-08-24T16:48:57.243Z,39.90
2018-08-24T16:52:00.394Z,40.00
2018-08-24T16:55:03.437Z,40.40
2018-08-24T16:58:06.640Z,40.80
2018-08-24T17:02:12.813Z,40.70
2018-08-24T17:05:15.916Z,40.70
2018-08-24T17:08:19.009Z,40.50
2018-08-24T17:11:22.129Z,40.80
2018-08-24T17:14:25.294Z,40.00
2018-08-24T17:17:28.460Z,46.00
2018-08-24T17:20:31.569Z,41.80
2018-08-24T17:23:36.849Z,40.20
2018-08-24T17:26:40.039Z,39.40
2018-08-24T17:29:43.186Z,39.00
2018-08-24T17:32:46.242Z,40.00
2018-08-24T17:35:49.300Z,41.20
2018-08-24T17:38:52.309Z,40.20
2018-08-24T17:41:55.623Z,40.30
2018-08-24T17:44:58.522Z,39.80
2018-08-24T17:48:01.674Z,40.20
2018-08-24T17:51:04.733Z,40.50
2018-08-24T17:54:07.810Z,40.90
2018-08-24T17:57:10.822Z,40.60
2018-08-24T18:00:16.427Z,41.10
2018-08-24T18:03:19.723Z,40.50
2018-08-24T18:06:23.952Z,40.40
2018-08-24T18:09:27.131Z,41.10
2018-08-24T18:12:30.189Z,40.90
2018-08-24T18:15:33.246Z,41.50
2018-08-24T18:18:36.473Z,42.00
2018-08-24T18:21:39.518Z,43.10
2018-08-24T18:24:42.604Z,42.90
2018-08-24T18:27:45.647Z,42.60
2018-08-24T18:30:48.667Z,42.00
2018-08-24T18:33:51.710Z,42.70
2018-08-24T18:36:54.771Z,42.90
2018-08-24T18:39:57.859Z,42.30
2018-08-24T18:43:00.902Z,43.60
2018-08-24T18:46:05.123Z,43.80
2018-08-24T18:49:08.148Z,44.60
2018-08-24T18:52:11.261Z,44.70
2018-08-24T18:55:14.339Z,45.40
2018-08-24T18:58:17.494Z,45.30
2018-08-24T19:01:20.585Z,46.30
2018-08-24T19:04:23.579Z,46.60
2018-08-24T19:07:26.592Z,46.50
2018-08-24T19:10:34.198Z,45.70
2018-08-24T19:13:37.498Z,46.20
2018-08-24T19:16:40.623Z,47.30
2018-08-24T19:19:49.237Z,47.40
2018-08-24T19:22:52.283Z,47.10
2018-08-24T19:25:55.398Z,47.30
2018-08-24T19:29:04.185Z,47.60
2018-08-24T19:32:07.624Z,47.00
2018-08-24T19:35:10.741Z,47.50
2018-08-24T19:38:13.883Z,48.10
2018-08-24T19:41:22.625Z,47.60
2018-08-24T19:44:25.901Z,48.20
2018-08-24T19:47:34.753Z,48.20
2018-08-24T19:50:38.270Z,48.10
2018-08-24T19:53:41.597Z,48.20
2018-08-24T19:56:45.151Z,49.20
2018-08-24T19:59:48.526Z,49.40
2018-08-24T20:02:51.696Z,48.80
2018-08-24T20:06:00.561Z,48.80
2018-08-24T20:10:15.266Z,48.70
2018-08-24T20:13:18.416Z,48.70
2018-08-24T20:16:27.460Z,49.00
2018-08-24T20:19:30.905Z,49.10
2018-08-24T20:22:36.873Z,49.10
2018-08-24T20:25:40.414Z,49.20
2018-08-24T20:28:44.013Z,49.70
2018-08-24T20:31:48.982Z,49.40
2018-08-24T20:34:52.099Z,49.40
2018-08-24T20:37:55.248Z,49.80
2018-08-24T20:40:58.387Z,49.80
2018-08-24T20:44:01.551Z,49.80
2018-08-24T20:47:04.808Z,49.80
2018-08-24T20:50:08.090Z,49.90
2018-08-24T20:53:13.032Z,49.80
2018-08-24T20:56:16.164Z,49.90
2018-08-24T20:59:19.241Z,49.90
2018-08-24T21:02:22.354Z,50.10
2018-08-24T21:05:25.554Z,50.40
2018-08-24T21:08:28.803Z,50.40
2018-08-24T21:11:31.939Z,50.30
2018-08-24T21:14:35.071Z,50.30
2018-08-24T21:17:38.265Z,50.30
2018-08-24T21:20:41.418Z,50.20
2018-08-24T21:23:44.643Z,50.50
2018-08-24T21:26:48.373Z,50.50
2018-08-24T21:29:51.429Z,50.80
2018-08-24T21:33:01.453Z,50.60
2018-08-24T21:36:05.529Z,50.80
2018-08-24T21:39:10.904Z,50.60
2018-08-24T21:42:13.999Z,50.80
2018-08-24T21:45:17.749Z,50.80
2018-08-24T21:48:21.380Z,51.10
2018-08-24T21:51:24.422Z,51.70
2018-08-24T21:54:27.506Z,51.80
2018-08-24T21:57:31.064Z,51.60
2018-08-24T22:00:38.871Z,51.50
2018-08-24T22:03:41.955Z,51.70
2018-08-24T22:06:45.128Z,51.90
2018-08-24T22:09:48.450Z,51.70
2018-08-24T22:12:51.590Z,51.60
2018-08-24T22:15:54.723Z,51.60
2018-08-24T22:18:57.798Z,51.60
2018-08-24T22:22:01.375Z,51.60
2018-08-24T22:25:04.622Z,51.60
2018-08-24T22:28:07.744Z,51.80
2018-08-24T22:31:10.880Z,51.80
2018-08-24T22:34:14.013Z,51.60
2018-08-24T22:37:17.128Z,51.40
2018-08-24T22:40:20.254Z,51.30
2018-08-24T22:43:29.056Z,52.00
2018-08-24T22:46:32.142Z,51.60
2018-08-24T22:49:35.270Z,50.90
2018-08-24T22:52:39.037Z,50.40
2018-08-24T22:55:42.166Z,50.60
2018-08-24T22:58:45.346Z,50.50
2018-08-24T23:01:48.449Z,50.50
2018-08-24T23:04:51.607Z,49.70
2018-08-24T23:07:54.723Z,50.60
2018-08-24T23:10:57.900Z,49.70
2018-08-24T23:14:01.025Z,49.50
2018-08-24T23:17:04.380Z,49.50
2018-08-24T23:20:07.528Z,48.70
2018-08-24T23:23:10.644Z,48.70
2018-08-24T23:26:13.769Z,47.70
2018-08-24T23:29:16.902Z,48.00
2018-08-24T23:32:20.102Z,48.40
2018-08-24T23:35:23.496Z,46.70
2018-08-24T23:38:26.533Z,46.90
2018-08-24T23:41:29.670Z,47.40
2018-08-24T23:44:32.814Z,47.90
2018-08-24T23:47:35.896Z,47.00
2018-08-24T23:50:39.043Z,47.00
2018-08-24T23:53:42.121Z,47.70
2018-08-24T23:56:45.234Z,46.90
2018-08-24T23:59:48.339Z,47.50
